AIRPORT_AIRPORT_METAR
METAR FOR GMFF
ADDS - METARS form results

(0022 UTC 06 December 2019)
Data provider http://aviationweather.gov/metar/data/
 
METAR text: GMFF 060000Z 21006KT CAVOK 08/06 Q1013 NOSIG
Conditions at: GMFF (FES-SAIS , MA) observed 0000 UTC 06 December 2019
Temperature: 8.0°C (46°F)
Dewpoint: 6.0°C (43°F) [RH = 87%]
Pressure (altimeter): 29.91 inches Hg (1013.0 mb)
Winds: from the SSW (210 degrees) at 7 MPH (6 knots; 3.1 m/s)
Visibility: 6 or more miles (10+ km)
Ceiling: ceiling and visibility are OK
Clouds: unknown
Weather: no significant weather observed at this time

METAR text: GMFF 052330Z 21004KT 180V240 CAVOK 07/06 Q1013 NOSIG
Conditions at: GMFF (FES-SAIS , MA) observed 2330 UTC 05 December 2019
Temperature: 7.0°C (45°F)
Dewpoint: 6.0°C (43°F) [RH = 93%]
Pressure (altimeter): 29.91 inches Hg (1013.0 mb)
Winds: from the SSW (210 degrees) at 5 MPH (4 knots; 2.1 m/s)
Visibility: 6 or more miles (10+ km)
Ceiling: ceiling and visibility are OK
Clouds: unknown
Weather: no significant weather observed at this time

Forecast for: GMFF (FES-SAIS , MA)
Text: TAF GMFF 052300Z 0600/0706 20004KT CAVOK
Forecast period: 0000 to 1100 UTC 06 December 2019
Forecast type: FROM: standard forecast or significant change
Winds: from the SSW (200 degrees) at 5 MPH (4 knots; 2.1 m/s)
Visibility: 6 or more miles 10+ km)
Ceiling: unknown
Clouds: missing
Weather: NSW  (no significant weather)
Text: BECMG 0611/0614 06010KT SCT026 SCT100
Forecast period: 1100 UTC 06 December 2019 to 0600 UTC 07 December 2019
Forecast type: BECOMING: Conditions expected to become as follows by 1400 UTC 06 December 2019
Winds: from the ENE (60 degrees) at 12 MPH (10 knots; 5.1 m/s)
Visibility: 6 or more miles 10+ km)
Ceiling: at least 12,000 feet AGL
Clouds: scattered clouds at 2600 feet AGL
scattered clouds at 10000 feet AGL
Weather: NSW  (no significant weather)

 AIRPORT_AIRPORT_MAP

 AIRPORT_RUNWAY_INFO
AIRPORT_RUNWAY 09 AIRPORT_RUNWAY_LENGTH 10499 ft AIRPORT_RUNWAY_WIDTH 148 ft
AIRPORT_RUNWAY_ELEVATION 1854 ft AIRPORT_RUNWAY_THRESHOLD 0 ft AIRPORT_RUNWAY_HEADING 90
AIRPORT_RUNWAY 27 AIRPORT_RUNWAY_LENGTH 10499 ft AIRPORT_RUNWAY_WIDTH 148 ft
AIRPORT_RUNWAY_ELEVATION 1890 ft AIRPORT_RUNWAY_THRESHOLD 820 ft AIRPORT_RUNWAY_HEADING 270

 AIRPORT_AIRPORT_FREQUENCIES
AIRPORT_AIRPORT_NAVAIDS_TYPE TWR AIRPORT_AIRPORT_NAVAIDS_NAME TWR AIRPORT_AIRPORT_NAVAIDS_FREQ 118.6 MHZ

 AIRPORT_AIRPORT_NAVAIDS
AIRPORT_AIRPORT_NAVAIDS_TYPE VOR-DME AIRPORT_AIRPORT_NAVAIDS_NAME Saiss AIRPORT_AIRPORT_NAVAIDS_FREQ 115700 KHZ



Copyright © 2005-2019 - Virtuel Air Alsace - Tous droits réservés